Time;durP1;ratioP1;P1;durP2;ratioP2;P2;SDS_P1;SDS_P2;PMS_P1;PMS_P2;Temp;Humidity;BMP_temperature;BMP_pressure;BME280_temperature;BME280_humidity;BME280_pressure;Samples;Min_cycle;Max_cycle;Signal;HPM_P1;HPM_P2
2022/06/22 00:01:36;;;;;;;1.55;1.30;;;20.40;99.90;;;;;;4179375;28;20051;-43
2022/06/22 00:04:00;;;;;;;1.00;0.90;;;20.40;99.90;;;;;;4179088;28;20059;-44
2022/06/22 00:06:49;;;;;;;2.08;0.95;;;20.50;99.90;;;;;;4179337;28;20052;-43
2022/06/22 00:09:37;;;;;;;0.90;0.90;;;20.60;99.90;;;;;;4162702;28;20056;-43
2022/06/22 00:11:59;;;;;;;1.98;1.00;;;20.30;99.90;;;;;;4165807;28;20056;-43
2022/06/22 00:14:24;;;;;;;1.25;1.17;;;20.30;99.90;;;;;;4162621;28;20052;-44
2022/06/22 00:16:51;;;;;;;1.42;1.42;;;20.30;99.90;;;;;;4162927;28;20073;-43
2022/06/22 00:19:26;;;;;;;1.67;0.90;;;20.30;99.90;;;;;;4162621;28;20064;-43
2022/06/22 00:21:49;;;;;;;1.30;1.20;;;20.30;99.90;;;;;;4162703;28;20060;-43
2022/06/22 00:24:40;;;;;;;1.42;1.00;;;20.20;99.90;;;;;;4161558;28;20578;-43
2022/06/22 00:27:14;;;;;;;0.90;0.90;;;20.10;99.90;;;;;;4162426;28;20056;-43
2022/06/22 00:29:36;;;;;;;2.50;1.23;;;20.00;99.90;;;;;;4162685;28;20611;-42
2022/06/22 00:32:00;;;;;;;1.75;1.45;;;19.90;99.90;;;;;;4162363;28;20127;-43
2022/06/22 00:34:33;;;;;;;1.38;0.90;;;19.80;99.90;;;;;;4162509;28;20044;-42
2022/06/22 00:37:19;;;;;;;1.55;1.00;;;19.90;99.90;;;;;;4162156;28;20107;-44
2022/06/22 00:39:46;;;;;;;1.10;1.10;;;19.90;99.90;;;;;;4162634;28;20052;-42
2022/06/22 00:42:18;;;;;;;1.90;1.35;;;19.70;99.90;;;;;;4162194;28;20096;-43
2022/06/22 00:45:02;;;;;;;1.15;1.13;;;19.60;99.90;;;;;;4163848;28;20096;-43
2022/06/22 00:47:31;;;;;;;2.65;1.10;;;19.60;99.90;;;;;;4162007;28;20440;-42
2022/06/22 00:49:59;;;;;;;2.50;1.00;;;19.70;99.90;;;;;;4164022;28;20048;-43
2022/06/22 00:52:42;;;;;;;1.45;0.95;;;19.70;99.90;;;;;;4172228;28;20415;-43
2022/06/22 00:55:14;;;;;;;0.90;0.90;;;19.80;99.90;;;;;;4178805;28;20121;-43
2022/06/22 00:57:40;;;;;;;1.00;0.90;;;19.80;99.90;;;;;;4178529;28;20060;-44
2022/06/22 01:00:13;;;;;;;1.10;1.10;;;19.60;99.90;;;;;;4177951;28;20128;-43
2022/06/22 01:02:58;;;;;;;2.50;1.10;;;19.40;99.90;;;;;;4177954;28;20051;-43
2022/06/22 01:05:30;;;;;;;4.80;1.45;;;19.20;99.90;;;;;;4177995;28;20575;-43
2022/06/22 01:08:25;;;;;;;2.25;1.00;;;19.00;99.90;;;;;;4178078;28;20051;-44
2022/06/22 01:12:16;;;;;;;1.15;1.10;;;18.90;99.90;;;;;;4178292;28;20056;-43
2022/06/22 01:13:49;;;;;;;1.38;1.13;;;18.80;99.90;;;;;;4178127;28;20087;-43
2022/06/22 01:16:20;;;;;;;1.35;1.30;;;18.70;99.90;;;;;;4178282;28;20079;-43
2022/06/22 01:19:04;;;;;;;1.80;1.15;;;18.70;99.90;;;;;;4177806;28;20048;-43
2022/06/22 01:21:40;;;;;;;1.00;1.00;;;18.70;99.90;;;;;;4178563;28;20099;-42
2022/06/22 01:24:37;;;;;;;1.65;1.00;;;18.80;99.90;;;;;;4177819;28;20056;-42
2022/06/22 01:27:21;;;;;;;1.20;1.20;;;19.10;99.90;;;;;;4175745;28;20107;-43
2022/06/22 01:29:50;;;;;;;1.83;1.10;;;19.00;99.90;;;;;;4175492;28;20095;-43
2022/06/22 01:32:20;;;;;;;1.92;1.20;;;19.20;99.90;;;;;;4176226;28;20447;-42
2022/06/22 01:34:47;;;;;;;1.20;1.20;;;19.10;99.90;;;;;;4175513;28;20110;-43
2022/06/22 01:37:29;;;;;;;1.50;1.40;;;19.00;99.90;;;;;;4175925;28;20531;-44
2022/06/22 01:39:56;;;;;;;1.17;1.10;;;18.90;99.90;;;;;;4175557;28;20098;-43
2022/06/22 01:42:45;;;;;;;1.23;1.23;;;18.90;99.90;;;;;;4175806;28;20068;-43
2022/06/22 01:45:17;;;;;;;1.15;1.15;;;18.80;99.90;;;;;;4159394;28;20771;-43
2022/06/22 01:47:49;;;;;;;1.30;1.20;;;18.80;99.90;;;;;;4161775;28;20139;-43
2022/06/22 01:50:25;;;;;;;1.85;1.38;;;18.60;99.90;;;;;;4175356;28;20047;-43
2022/06/22 01:53:16;;;;;;;2.20;1.08;;;18.50;99.90;;;;;;4175379;28;20475;-43
2022/06/22 01:56:02;;;;;;;1.13;1.13;;;18.60;99.90;;;;;;4175494;28;20048;-43
2022/06/22 01:58:55;;;;;;;1.95;1.10;;;18.60;99.90;;;;;;4174848;28;20047;-43
2022/06/22 02:01:45;;;;;;;1.20;1.10;;;18.50;99.90;;;;;;4120336;28;20116;-43
2022/06/22 02:04:08;;;;;;;2.90;1.10;;;18.50;99.90;;;;;;4126095;28;20081;-44
2022/06/22 02:09:27;;;;;;;4.82;1.20;;;18.60;99.90;;;;;;4126182;28;20204;-43
2022/06/22 02:12:18;;;;;;;1.30;1.30;;;18.50;99.90;;;;;;4135470;28;20049;-43
2022/06/22 02:14:35;;;;;;;1.65;1.55;;;18.20;99.90;;;;;;4142452;28;20752;-43
2022/06/22 02:17:01;;;;;;;4.82;1.10;;;18.10;99.90;;;;;;4142066;28;20607;-43
2022/06/22 02:19:22;;;;;;;1.20;1.20;;;18.10;99.90;;;;;;4142245;28;20104;-43
2022/06/22 02:21:50;;;;;;;1.67;1.20;;;18.40;99.90;;;;;;4142487;28;20576;-44
2022/06/22 02:24:18;;;;;;;1.75;1.27;;;18.40;99.90;;;;;;4142691;28;20127;-43
2022/06/22 02:26:50;;;;;;;1.88;1.00;;;18.30;99.90;;;;;;4142329;28;20087;-43
2022/06/22 02:29:13;;;;;;;2.53;1.27;;;18.00;99.90;;;;;;4142636;28;20120;-43
2022/06/22 02:31:34;;;;;;;1.50;1.40;;;18.00;99.90;;;;;;4142318;28;20165;-43
2022/06/22 02:33:57;;;;;;;1.20;1.20;;;18.10;99.90;;;;;;4142526;28;20126;-44
2022/06/22 02:36:18;;;;;;;1.92;1.73;;;18.10;99.90;;;;;;4142292;28;20505;-43
2022/06/22 02:38:42;;;;;;;1.17;1.10;;;17.90;99.90;;;;;;4177232;28;20051;-43
2022/06/22 02:46:23;;;;;;;4.35;1.80;;;17.60;99.90;;;;;;4176939;28;20060;-43
2022/06/22 02:48:50;;;;;;;1.23;1.13;;;17.60;99.90;;;;;;4177445;28;20725;-43
2022/06/22 02:51:23;;;;;;;1.73;1.60;;;17.70;99.90;;;;;;4160591;28;20048;-43
2022/06/22 02:53:45;;;;;;;1.27;1.27;;;17.70;99.90;;;;;;4161095;28;20053;-44
2022/06/22 02:56:13;;;;;;;2.17;1.40;;;17.80;99.90;;;;;;4160829;28;20052;-43
2022/06/22 02:58:37;;;;;;;2.63;1.20;;;17.70;99.90;;;;;;4160617;28;20048;-42
2022/06/22 03:01:10;;;;;;;2.60;1.73;;;17.60;99.90;;;;;;4160757;28;20103;-45
2022/06/22 03:03:34;;;;;;;2.00;1.40;;;17.50;99.90;;;;;;4160326;28;20167;-42
2022/06/22 03:05:57;;;;;;;4.93;2.00;;;17.50;99.90;;;;;;4160497;28;20104;-43
2022/06/22 03:08:19;;;;;;;1.87;1.57;;;17.60;99.90;;;;;;4164063;28;20123;-43
2022/06/22 03:10:55;;;;;;;2.75;1.42;;;17.70;99.90;;;;;;4160715;28;20133;-43
2022/06/22 03:13:20;;;;;;;1.38;1.38;;;17.70;99.90;;;;;;4177031;28;20071;-43
2022/06/22 03:15:42;;;;;;;2.10;1.42;;;17.80;99.90;;;;;;4177006;28;20122;-44
2022/06/22 03:18:04;;;;;;;2.45;1.75;;;17.80;99.90;;;;;;4176638;28;20998;-43
2022/06/22 03:20:32;;;;;;;3.03;1.52;;;17.80;99.90;;;;;;4176817;28;20569;-44
2022/06/22 03:23:16;;;;;;;2.78;1.40;;;17.90;99.90;;;;;;4176976;28;20068;-42
2022/06/22 03:25:47;;;;;;;2.05;1.60;;;17.90;99.90;;;;;;4176904;28;20075;-42
2022/06/22 03:28:23;;;;;;;1.48;1.33;;;17.80;99.90;;;;;;4176824;28;20059;-44
2022/06/22 03:31:22;;;;;;;1.65;1.55;;;17.80;99.90;;;;;;4176723;28;20055;-43
2022/06/22 03:34:15;;;;;;;3.38;2.38;;;17.70;99.90;;;;;;4176184;28;20389;-43
2022/06/22 03:36:43;;;;;;;1.30;1.20;;;17.80;99.90;;;;;;4176823;28;20099;-44
2022/06/22 03:39:11;;;;;;;2.45;1.73;;;17.70;99.90;;;;;;4177088;28;20404;-43
2022/06/22 03:41:35;;;;;;;2.33;1.50;;;17.50;99.90;;;;;;4179423;28;20059;-43
2022/06/22 03:44:17;;;;;;;1.95;1.85;;;17.40;99.90;;;;;;4180101;28;20088;-43
2022/06/22 03:46:42;;;;;;;2.17;1.45;;;17.40;99.90;;;;;;4179796;28;20442;-43
2022/06/22 03:49:24;;;;;;;1.60;1.50;;;17.30;99.90;;;;;;4179736;28;20099;-43
2022/06/22 03:52:14;;;;;;;3.45;1.75;;;17.30;99.90;;;;;;4163103;28;20118;-44
2022/06/22 03:54:52;;;;;;;2.60;1.88;;;17.40;99.90;;;;;;4163103;28;20061;-43
2022/06/22 03:57:17;;;;;;;1.90;1.83;;;17.20;99.90;;;;;;4163157;28;20103;-43
2022/06/22 03:59:41;;;;;;;1.83;1.70;;;17.30;99.90;;;;;;4163173;28;20464;-43
2022/06/22 04:02:03;;;;;;;2.45;1.70;;;17.20;99.90;;;;;;4162881;28;20154;-44
2022/06/22 04:04:24;;;;;;;3.03;1.55;;;17.20;99.90;;;;;;4162937;28;20075;-44
2022/06/22 04:06:47;;;;;;;4.35;1.73;;;17.10;99.90;;;;;;4162851;28;20060;-43
2022/06/22 04:09:14;;;;;;;4.82;2.50;;;17.10;99.90;;;;;;4162893;28;20055;-43
2022/06/22 04:12:01;;;;;;;1.73;1.63;;;17.10;99.90;;;;;;4170449;28;20064;-43
2022/06/22 04:14:27;;;;;;;3.03;2.22;;;17.20;99.90;;;;;;4179524;28;20052;-43
2022/06/22 04:16:53;;;;;;;2.72;1.73;;;17.00;99.90;;;;;;4178918;28;20091;-44
2022/06/22 04:19:22;;;;;;;5.45;2.03;;;17.00;99.90;;;;;;4162632;28;20111;-43
2022/06/22 04:21:52;;;;;;;4.03;2.03;;;17.00;99.90;;;;;;4162700;28;20885;-43
2022/06/22 04:24:24;;;;;;;4.93;2.00;;;17.10;99.90;;;;;;4163219;28;20060;-43
2022/06/22 04:27:11;;;;;;;4.20;1.90;;;17.10;99.90;;;;;;4162724;28;20052;-43
2022/06/22 04:29:32;;;;;;;3.42;2.08;;;17.20;99.90;;;;;;4162595;28;20131;-43
2022/06/22 04:32:02;;;;;;;2.10;2.00;;;17.20;99.90;;;;;;4162475;28;20087;-42
2022/06/22 04:34:58;;;;;;;2.05;1.95;;;17.20;99.90;;;;;;4166910;28;20048;-44
2022/06/22 04:37:33;;;;;;;7.20;1.85;;;17.20;99.90;;;;;;4172735;28;20141;-42
2022/06/22 04:40:04;;;;;;;3.08;2.05;;;17.30;99.90;;;;;;4179030;28;20601;-43
2022/06/22 04:42:24;;;;;;;5.93;2.45;;;17.40;99.90;;;;;;4178663;28;20044;-43
2022/06/22 04:44:50;;;;;;;2.65;1.60;;;17.40;99.90;;;;;;4162363;28;20056;-43
2022/06/22 04:47:33;;;;;;;1.73;1.63;;;17.40;99.90;;;;;;4162465;28;20567;-42
2022/06/22 04:50:01;;;;;;;3.78;1.58;;;17.40;99.90;;;;;;4168999;28;20056;-43
2022/06/22 04:52:31;;;;;;;2.10;2.00;;;17.40;99.90;;;;;;4173658;28;20128;-42
2022/06/22 04:54:56;;;;;;;3.00;1.92;;;17.40;99.90;;;;;;4176540;28;20050;-43
2022/06/22 04:57:33;;;;;;;2.13;2.03;;;17.50;99.90;;;;;;4178577;28;20084;-44
2022/06/22 04:59:55;;;;;;;2.80;1.80;;;17.60;99.90;;;;;;4178636;28;20099;-42
2022/06/22 05:02:19;;;;;;;2.13;1.75;;;17.60;99.90;;;;;;4178676;28;20129;-43
2022/06/22 05:04:44;;;;;;;1.80;1.70;;;17.60;99.90;;;;;;4178487;28;20153;-45
2022/06/22 05:07:34;;;;;;;2.13;1.92;;;17.70;99.90;;;;;;4174019;28;20052;-44
2022/06/22 05:10:15;;;;;;;1.65;1.55;;;17.80;99.90;;;;;;4165554;28;20106;-43
2022/06/22 05:12:54;;;;;;;1.92;1.75;;;17.80;99.90;;;;;;4177992;28;20052;-43
2022/06/22 05:15:38;;;;;;;1.92;1.50;;;17.80;99.90;;;;;;4161915;28;20559;-43
2022/06/22 05:18:02;;;;;;;1.30;1.30;;;17.90;99.90;;;;;;4171512;28;20519;-43
2022/06/22 05:21:03;;;;;;;1.63;1.63;;;17.90;99.90;;;;;;4166466;28;20052;-43
2022/06/22 05:23:26;;;;;;;1.58;1.48;;;17.90;99.90;;;;;;4169502;28;20124;-43
2022/06/22 05:25:52;;;;;;;3.90;2.85;;;17.80;99.90;;;;;;4175142;28;20178;-46
2022/06/22 05:28:18;;;;;;;2.55;2.38;;;17.80;99.90;;;;;;4175075;28;20044;-46
2022/06/22 05:30:43;;;;;;;2.35;1.67;;;17.90;99.90;;;;;;4175555;28;20103;-45
2022/06/22 05:33:11;;;;;;;1.60;1.60;;;18.00;99.90;;;;;;4175156;28;20419;-47
2022/06/22 05:35:52;;;;;;;7.72;1.70;;;18.00;99.90;;;;;;4168829;28;20055;-45
2022/06/22 05:38:16;;;;;;;2.05;1.50;;;18.30;99.90;;;;;;4175536;28;20132;-47
2022/06/22 05:40:39;;;;;;;6.72;2.38;;;18.40;99.90;;;;;;4175777;28;20056;-46
2022/06/22 05:43:00;;;;;;;2.10;1.63;;;18.50;99.90;;;;;;4175427;28;20889;-45
2022/06/22 05:45:29;;;;;;;1.83;1.70;;;18.60;99.90;;;;;;4175958;28;20047;-45
2022/06/22 05:47:52;;;;;;;2.20;1.73;;;18.70;99.90;;;;;;4175370;28;20083;-45
2022/06/22 05:50:30;;;;;;;1.75;1.65;;;18.70;99.90;;;;;;4175683;28;20056;-45
2022/06/22 05:53:03;;;;;;;3.65;1.98;;;18.70;99.90;;;;;;4175294;28;20183;-45
2022/06/22 05:55:45;;;;;;;3.83;1.88;;;18.60;99.90;;;;;;4175475;28;20094;-46
2022/06/22 05:58:24;;;;;;;2.40;1.63;;;18.70;99.90;;;;;;4169988;28;20084;-45
2022/06/22 06:00:51;;;;;;;2.95;2.17;;;18.70;99.90;;;;;;4169170;28;20056;-46
2022/06/22 06:03:35;;;;;;;1.67;1.60;;;18.70;99.90;;;;;;4168140;28;20047;-46
2022/06/22 06:06:12;;;;;;;3.30;1.77;;;18.90;99.90;;;;;;4160678;28;20075;-44
2022/06/22 06:08:58;;;;;;;1.35;1.35;;;19.10;99.90;;;;;;4173635;28;20067;-45
2022/06/22 06:11:23;;;;;;;2.55;1.40;;;19.40;99.90;;;;;;4172019;28;20128;-47
2022/06/22 06:13:50;;;;;;;1.30;1.20;;;19.40;99.90;;;;;;4172918;28;20099;-46
2022/06/22 06:16:21;;;;;;;3.47;1.60;;;19.50;99.90;;;;;;4160103;28;20624;-46
2022/06/22 06:18:44;;;;;;;5.38;1.85;;;19.50;99.90;;;;;;4176450;28;20136;-47
2022/06/22 06:21:16;;;;;;;1.67;1.13;;;19.50;99.90;;;;;;4165041;28;20053;-46
2022/06/22 06:24:04;;;;;;;2.75;1.33;;;19.50;99.90;;;;;;4159212;28;20108;-45
2022/06/22 06:29:30;;;;;;;1.58;1.10;;;19.70;99.90;;;;;;4165439;28;20419;-46
2022/06/22 06:32:14;;;;;;;2.67;1.00;;;19.80;99.90;;;;;;4160731;28;20052;-44
2022/06/22 06:34:42;;;;;;;2.65;1.00;;;19.90;99.90;;;;;;4160795;28;20626;-46
2022/06/22 06:37:12;;;;;;;1.10;1.10;;;20.00;99.90;;;;;;4160828;28;20099;-46
2022/06/22 06:39:38;;;;;;;1.30;1.20;;;20.10;99.90;;;;;;4160446;28;20582;-45
2022/06/22 06:42:22;;;;;;;2.03;1.17;;;20.20;99.90;;;;;;4160676;28;20139;-47
2022/06/22 06:44:44;;;;;;;2.38;1.55;;;20.30;99.90;;;;;;4176955;28;20618;-46
2022/06/22 06:47:13;;;;;;;5.10;1.00;;;20.30;99.90;;;;;;4160564;28;20076;-45
2022/06/22 06:50:08;;;;;;;3.45;1.13;;;20.40;99.90;;;;;;4166468;28;20094;-45
2022/06/22 06:53:01;;;;;;;3.70;1.58;;;20.50;99.90;;;;;;4168580;28;20045;-45
2022/06/22 06:55:27;;;;;;;1.77;1.33;;;20.40;99.90;;;;;;4160688;28;20049;-47
2022/06/22 06:57:55;;;;;;;2.28;1.20;;;20.40;99.90;;;;;;4160431;28;20131;-46
2022/06/22 07:00:16;;;;;;;2.50;1.10;;;20.50;99.90;;;;;;4160822;28;20053;-48
2022/06/22 07:02:39;;;;;;;7.80;1.35;;;20.60;99.90;;;;;;4160668;28;20221;-47
2022/06/22 07:05:03;;;;;;;8.55;1.88;;;20.60;99.90;;;;;;4160383;28;20160;-48
2022/06/22 07:07:30;;;;;;;2.60;1.65;;;20.70;99.90;;;;;;4164467;28;20531;-47
2022/06/22 07:09:54;;;;;;;13.02;1.80;;;20.70;99.90;;;;;;4160371;28;20111;-47
2022/06/22 07:12:36;;;;;;;2.90;1.40;;;20.90;99.90;;;;;;4173468;28;20055;-44
2022/06/22 07:15:00;;;;;;;2.58;1.10;;;21.10;99.90;;;;;;4170339;28;20060;-46
2022/06/22 07:17:23;;;;;;;1.90;1.10;;;21.10;99.90;;;;;;4165021;28;20059;-45
2022/06/22 07:19:43;;;;;;;5.55;1.23;;;21.00;99.90;;;;;;4163293;28;20069;-46
2022/06/22 07:22:36;;;;;;;3.88;2.05;;;21.10;99.90;;;;;;4163638;28;20103;-45
2022/06/22 07:25:12;;;;;;;2.28;1.25;;;21.30;99.90;;;;;;4164649;28;20104;-45
2022/06/22 07:27:51;;;;;;;8.65;1.45;;;21.40;99.90;;;;;;4171854;28;20052;-46
2022/06/22 07:30:13;;;;;;;2.83;1.00;;;21.40;99.90;;;;;;4163098;28;20102;-45
2022/06/22 07:32:56;;;;;;;1.88;1.30;;;21.50;99.90;;;;;;4163381;28;20056;-45
2022/06/22 07:35:24;;;;;;;0.93;0.90;;;21.70;99.90;;;;;;4163219;28;20049;-47
2022/06/22 07:38:03;;;;;;;1.35;0.90;;;22.00;99.90;;;;;;4163182;28;20155;-47
2022/06/22 07:40:26;;;;;;;1.50;1.00;;;22.40;99.90;;;;;;4163031;28;20079;-45
2022/06/22 07:42:50;;;;;;;1.42;1.33;;;22.40;99.90;;;;;;4163724;28;20057;-46
2022/06/22 07:45:15;;;;;;;1.25;0.90;;;22.50;99.90;;;;;;4179752;28;20124;-46
2022/06/22 07:47:45;;;;;;;1.50;0.80;;;22.60;99.90;;;;;;4163919;28;20104;-45
2022/06/22 07:50:32;;;;;;;1.90;0.95;;;22.60;99.90;;;;;;4171404;28;20516;-45
2022/06/22 07:53:25;;;;;;;4.35;0.90;;;22.70;99.90;;;;;;4176780;28;20133;-46
2022/06/22 07:56:13;;;;;;;2.13;0.90;;;22.90;99.90;;;;;;4177257;28;20056;-46
2022/06/22 07:58:51;;;;;;;1.58;0.85;;;23.00;99.90;;;;;;4177097;28;20106;-46
2022/06/22 08:01:17;;;;;;;3.42;0.80;;;23.10;99.90;;;;;;4177260;28;20055;-45
2022/06/22 08:03:53;;;;;;;2.67;0.80;;;23.20;99.90;;;;;;4177104;28;20060;-45
2022/06/22 08:06:23;;;;;;;3.03;1.80;;;23.40;99.90;;;;;;4177536;28;20120;-45
2022/06/22 08:08:55;;;;;;;2.97;0.80;;;23.40;99.90;;;;;;4176787;28;20404;-46
2022/06/22 08:11:22;;;;;;;1.98;0.90;;;23.60;99.90;;;;;;4176962;28;20056;-45
2022/06/22 08:14:00;;;;;;;3.28;0.95;;;23.80;99.90;;;;;;4176762;28;20400;-47
2022/06/22 08:16:31;;;;;;;0.95;0.80;;;24.10;99.90;;;;;;4176910;28;20055;-45
2022/06/22 08:18:52;;;;;;;1.45;0.70;;;24.40;99.90;;;;;;4170242;28;20052;-47
2022/06/22 08:21:18;;;;;;;1.40;0.80;;;24.40;99.90;;;;;;4174494;28;20052;-46
2022/06/22 08:23:39;;;;;;;1.38;1.17;;;24.60;99.90;;;;;;4177168;28;20409;-45
2022/06/22 08:26:04;;;;;;;2.08;0.80;;;24.80;99.90;;;;;;4159730;28;20099;-47
2022/06/22 08:28:26;;;;;;;0.70;0.70;;;25.10;99.90;;;;;;4160381;28;20049;-45
2022/06/22 08:30:49;;;;;;;;;;;25.10;99.90;;;;;;4162927;28;20826;-48
2022/06/22 08:33:16;;;;;;;2.05;0.80;;;25.10;99.90;;;;;;4162365;28;19927;-47
2022/06/22 08:35:43;;;;;;;2.83;0.70;;;25.20;99.90;;;;;;4162718;28;20080;-46
2022/06/22 08:38:09;;;;;;;1.58;0.65;;;25.40;99.90;;;;;;4162693;28;20052;-46
2022/06/22 08:41:12;;;;;;;2.95;0.68;;;25.60;99.90;;;;;;4162310;28;20075;-46
2022/06/22 08:43:39;;;;;;;1.95;0.57;;;25.70;99.90;;;;;;4164036;28;20784;-46
2022/06/22 08:46:22;;;;;;;0.60;0.60;;;25.80;99.90;;;;;;4162233;28;20049;-46
2022/06/22 08:49:08;;;;;;;2.67;0.60;;;26.30;99.90;;;;;;4162134;28;20127;-46
2022/06/22 08:52:00;;;;;;;2.03;0.60;;;26.80;99.90;;;;;;4162323;28;20057;-46
2022/06/22 08:54:42;;;;;;;1.08;0.90;;;26.90;99.90;;;;;;4162051;28;20056;-45
2022/06/22 08:57:15;;;;;;;0.80;0.60;;;27.30;99.90;;;;;;4162114;28;20107;-45
2022/06/22 08:59:44;;;;;;;2.03;0.73;;;27.10;99.70;;;;;;4161868;28;20551;-46
2022/06/22 09:02:43;;;;;;;1.23;0.60;;;27.20;99.90;;;;;;4162148;28;20075;-46
2022/06/22 09:05:12;;;;;;;2.85;0.85;;;27.30;99.90;;;;;;4161806;28;20472;-46
2022/06/22 09:07:45;;;;;;;0.70;0.50;;;27.10;97.80;;;;;;4167529;28;20126;-46
2022/06/22 09:10:11;;;;;;;0.85;0.50;;;27.10;97.50;;;;;;4165851;28;20714;-46
2022/06/22 09:12:46;;;;;;;0.80;0.70;;;27.30;97.90;;;;;;4171580;28;20123;-45
2022/06/22 09:15:27;;;;;;;1.27;0.50;;;27.30;97.60;;;;;;4161786;28;20047;-46
2022/06/22 09:18:05;;;;;;;2.03;0.73;;;27.40;99.20;;;;;;4169997;28;20044;-46
2022/06/22 09:20:40;;;;;;;1.15;0.82;;;28.00;97.80;;;;;;4161953;28;20044;-44
2022/06/22 09:23:09;;;;;;;2.88;0.65;;;27.90;95.80;;;;;;4161457;28;20148;-43
2022/06/22 09:25:35;;;;;;;1.30;0.50;;;28.10;94.20;;;;;;4161807;28;20460;-43
2022/06/22 09:27:56;;;;;;;0.80;0.60;;;27.90;94.40;;;;;;4161393;28;20102;-45
2022/06/22 09:30:51;;;;;;;0.40;0.40;;;28.10;95.80;;;;;;4161693;28;20158;-45
2022/06/22 09:33:43;;;;;;;0.60;0.50;;;28.20;95.00;;;;;;4161557;28;20048;-43
2022/06/22 09:36:15;;;;;;;1.77;0.55;;;28.00;95.20;;;;;;4161434;28;20052;-43
2022/06/22 09:38:57;;;;;;;0.50;0.50;;;27.80;93.20;;;;;;4160773;28;20052;-43
2022/06/22 09:41:37;;;;;;;1.43;0.43;;;27.90;93.00;;;;;;4161113;28;20125;-44
2022/06/22 09:44:09;;;;;;;2.38;0.40;;;27.80;93.00;;;;;;4169483;28;20095;-43
2022/06/22 09:46:49;;;;;;;;;;;27.90;94.20;;;;;;4161679;28;20138;-43
2022/06/22 09:49:12;;;;;;;1.23;0.40;;;28.00;92.90;;;;;;4172977;28;19971;-43
2022/06/22 09:52:01;;;;;;;1.48;0.40;;;27.90;92.80;;;;;;4161238;28;20063;-46
2022/06/22 09:57:58;;;;;;;1.17;0.57;;;27.80;92.80;;;;;;4171069;28;20452;-44
2022/06/22 10:00:25;;;;;;;1.33;0.40;;;28.00;92.20;;;;;;4169271;28;20047;-43
2022/06/22 10:02:49;;;;;;;1.90;0.40;;;27.90;92.20;;;;;;4160837;28;20103;-43
2022/06/22 10:05:40;;;;;;;1.85;0.50;;;28.20;93.60;;;;;;4166660;28;20060;-43
2022/06/22 10:08:07;;;;;;;0.43;0.40;;;28.50;93.60;;;;;;4164415;28;20134;-44
2022/06/22 10:10:39;;;;;;;0.47;0.40;;;28.90;94.10;;;;;;4165159;28;20741;-46
2022/06/22 10:13:15;;;;;;;0.55;0.47;;;29.10;92.90;;;;;;4163481;28;20087;-45
2022/06/22 10:15:43;;;;;;;1.08;0.45;;;29.30;93.80;;;;;;4175175;28;20088;-42
2022/06/22 10:18:14;;;;;;;1.42;0.40;;;29.50;94.30;;;;;;4170099;28;20132;-43
2022/06/22 10:20:44;;;;;;;3.58;0.40;;;29.00;92.70;;;;;;4162546;28;20060;-44
2022/06/22 10:23:13;;;;;;;0.47;0.40;;;29.30;93.60;;;;;;4165262;28;20064;-44
2022/06/22 10:25:47;;;;;;;1.15;0.40;;;30.00;91.80;;;;;;4175601;28;20111;-45
2022/06/22 10:28:18;;;;;;;3.15;0.40;;;29.70;91.50;;;;;;4160921;28;20044;-43
2022/06/22 10:30:48;;;;;;;2.17;0.40;;;29.70;91.10;;;;;;4161781;28;20591;-44
2022/06/22 10:33:38;;;;;;;0.40;0.40;;;29.90;92.20;;;;;;4164270;28;20512;-44
2022/06/22 10:36:25;;;;;;;0.45;0.40;;;29.50;90.30;;;;;;4166038;28;20121;-44
2022/06/22 10:38:49;;;;;;;5.30;0.30;;;29.50;90.90;;;;;;4170108;28;20076;-45
2022/06/22 10:47:24;;;;;;;0.70;0.40;;;29.80;87.20;;;;;;4168696;28;20079;-46
2022/06/22 10:49:53;;;;;;;0.40;0.40;;;29.50;86.40;;;;;;4168265;28;20539;-46
2022/06/22 10:52:25;;;;;;;0.40;0.40;;;30.20;86.90;;;;;;4166443;28;20495;-43
2022/06/22 10:54:52;;;;;;;3.72;0.40;;;30.00;88.10;;;;;;4163819;28;20099;-43
2022/06/22 10:57:32;;;;;;;0.60;0.40;;;30.10;87.10;;;;;;4163814;28;20087;-44
2022/06/22 11:00:04;;;;;;;0.88;0.40;;;29.90;85.80;;;;;;4164025;28;20578;-45
2022/06/22 11:02:48;;;;;;;1.17;0.32;;;29.90;84.40;;;;;;4164347;28;20068;-43
2022/06/22 11:05:37;;;;;;;1.13;0.40;;;30.10;87.30;;;;;;4164264;28;20048;-43
2022/06/22 11:07:57;;;;;;;1.42;0.40;;;30.40;86.70;;;;;;4177240;28;20052;-42
2022/06/22 11:10:21;;;;;;;0.55;0.30;;;30.70;87.40;;;;;;4163663;28;20154;-46
2022/06/22 11:13:07;;;;;;;1.23;0.40;;;30.80;85.00;;;;;;4163509;28;20056;-44
2022/06/22 11:16:06;;;;;;;1.10;0.30;;;30.90;88.50;;;;;;4173368;28;20610;-43
2022/06/22 11:18:59;;;;;;;1.35;0.40;;;31.40;84.00;;;;;;4176751;28;20114;-44
2022/06/22 11:21:41;;;;;;;1.40;0.30;;;31.50;82.50;;;;;;4178544;28;20067;-43
2022/06/22 11:24:44;;;;;;;0.30;0.30;;;31.20;81.10;;;;;;4172281;28;20048;-44
2022/06/22 11:33:34;;;;;;;0.65;0.40;;;30.30;80.00;;;;;;4163362;28;20047;-43
2022/06/22 11:36:07;;;;;;;1.73;0.82;;;30.60;87.90;;;;;;4168598;28;20099;-44
2022/06/22 11:38:46;;;;;;;1.95;0.68;;;31.10;79.80;;;;;;4166699;28;20048;-43
2022/06/22 11:41:23;;;;;;;1.60;0.40;;;31.40;80.10;;;;;;4165650;28;20080;-43
2022/06/22 11:43:56;;;;;;;1.92;0.40;;;31.60;81.90;;;;;;4165852;28;20059;-44
2022/06/22 11:46:36;;;;;;;1.50;0.40;;;31.60;79.90;;;;;;4163206;28;20135;-45
2022/06/22 11:49:22;;;;;;;2.67;0.32;;;30.80;80.70;;;;;;4163079;28;20532;-43
2022/06/22 11:52:06;;;;;;;3.40;0.40;;;30.70;80.60;;;;;;4163110;28;20121;-43
2022/06/22 11:54:54;;;;;;;2.70;0.40;;;31.10;84.10;;;;;;4163346;28;20060;-43
2022/06/22 11:57:28;;;;;;;1.60;0.38;;;31.40;83.10;;;;;;4162920;28;20057;-44
2022/06/22 11:59:58;;;;;;;2.72;0.68;;;31.20;82.20;;;;;;4163146;28;20551;-42
2022/06/22 12:02:45;;;;;;;1.10;0.30;;;31.10;81.10;;;;;;4162995;28;20137;-44
2022/06/22 12:05:09;;;;;;;;;;;31.10;81.30;;;;;;4163547;28;20048;-44
2022/06/22 12:07:52;;;;;;;2.35;0.40;;;31.00;80.50;;;;;;4167951;28;19947;-43
2022/06/22 12:10:53;;;;;;;0.90;0.40;;;30.90;79.40;;;;;;4166312;28;20052;-44
2022/06/22 12:13:36;;;;;;;2.75;0.40;;;30.60;81.30;;;;;;4162769;28;20048;-43
2022/06/22 12:16:20;;;;;;;0.65;0.40;;;30.70;79.90;;;;;;4166249;28;20053;-44
2022/06/22 12:18:47;;;;;;;1.45;0.40;;;30.80;81.30;;;;;;4163194;28;20060;-44
2022/06/22 12:21:21;;;;;;;1.15;0.40;;;30.80;81.70;;;;;;4169145;28;20043;-45
2022/06/22 12:23:49;;;;;;;1.50;0.50;;;31.00;81.70;;;;;;4162600;28;20079;-44
2022/06/22 12:26:28;;;;;;;1.00;0.50;;;31.40;82.30;;;;;;4162863;28;20060;-43
2022/06/22 12:29:16;;;;;;;0.80;0.40;;;31.10;80.10;;;;;;4162602;28;20064;-44
2022/06/22 12:31:47;;;;;;;1.10;0.40;;;30.70;80.90;;;;;;4162755;28;20104;-43
2022/06/22 12:34:46;;;;;;;2.28;0.43;;;31.10;85.80;;;;;;4162234;28;20111;-46
2022/06/22 12:37:22;;;;;;;0.40;0.40;;;31.20;85.00;;;;;;4162639;28;20536;-43
2022/06/22 12:39:50;;;;;;;3.17;0.50;;;31.70;84.10;;;;;;4161731;28;20051;-44
2022/06/22 12:42:35;;;;;;;2.65;0.50;;;32.20;83.20;;;;;;4161111;28;20055;-42
2022/06/22 12:45:08;;;;;;;1.25;0.50;;;32.10;79.80;;;;;;4162221;28;20080;-43
2022/06/22 12:48:27;;;;;;;1.67;0.40;;;31.90;83.50;;;;;;4162547;28;20131;-45
2022/06/22 12:51:10;;;;;;;1.70;0.40;;;32.20;81.20;;;;;;4175883;28;20094;-45
2022/06/22 12:53:44;;;;;;;1.88;0.40;;;32.30;78.80;;;;;;4165411;28;20103;-44
2022/06/22 12:56:26;;;;;;;1.58;0.40;;;32.40;79.80;;;;;;4162187;28;20051;-43
2022/06/22 12:59:14;;;;;;;0.38;0.38;;;32.60;80.00;;;;;;4162295;28;20049;-44
2022/06/22 13:01:36;;;;;;;2.60;1.00;;;32.70;80.90;;;;;;4162101;28;20080;-45
2022/06/22 13:04:03;;;;;;;1.23;0.40;;;32.70;77.20;;;;;;4162286;28;20075;-47
2022/06/22 13:06:27;;;;;;;0.85;0.40;;;32.60;78.70;;;;;;4164340;28;20059;-44
2022/06/22 13:08:48;;;;;;;0.88;0.50;;;33.10;79.70;;;;;;4170465;28;20515;-43
2022/06/22 13:11:21;;;;;;;2.75;0.40;;;32.70;83.10;;;;;;4164756;28;20132;-43
2022/06/22 13:13:48;;;;;;;1.30;0.95;;;32.90;79.00;;;;;;4161955;28;20052;-45
2022/06/22 13:16:33;;;;;;;4.20;0.47;;;32.70;80.30;;;;;;4177558;28;20135;-44
2022/06/22 13:19:16;;;;;;;0.95;0.40;;;32.60;76.30;;;;;;4161515;28;20103;-43
2022/06/22 13:21:42;;;;;;;3.58;0.50;;;32.30;80.40;;;;;;4161265;28;20063;-43
2022/06/22 13:24:26;;;;;;;1.65;0.40;;;32.20;81.00;;;;;;4161603;28;20056;-44
2022/06/22 13:27:25;;;;;;;0.77;0.40;;;32.40;78.20;;;;;;4161465;28;20048;-44
2022/06/22 13:29:55;;;;;;;0.68;0.50;;;33.00;82.30;;;;;;4161716;28;20107;-43
2022/06/22 13:32:18;;;;;;;1.25;0.35;;;32.20;76.40;;;;;;4161604;28;20075;-43
2022/06/22 13:34:41;;;;;;;2.90;0.40;;;32.60;79.50;;;;;;4161244;28;20115;-45
2022/06/22 13:37:28;;;;;;;1.73;0.40;;;32.90;83.20;;;;;;4161353;28;20591;-44
2022/06/22 13:39:57;;;;;;;1.83;0.65;;;33.00;81.70;;;;;;4161420;28;20056;-44
2022/06/22 13:42:39;;;;;;;0.60;0.50;;;32.60;78.90;;;;;;4161488;28;20481;-44
2022/06/22 13:45:29;;;;;;;2.80;0.40;;;32.20;79.30;;;;;;4161760;28;20060;-43
2022/06/22 13:48:17;;;;;;;4.60;0.45;;;32.40;79.80;;;;;;4160729;28;20531;-43
2022/06/22 13:51:08;;;;;;;0.57;0.57;;;32.20;78.40;;;;;;4163155;28;20539;-43